Time;durP1;ratioP1;P1;durP2;ratioP2;P2;SDS_P1;SDS_P2;PMS_P1;PMS_P2;Temp;Humidity;BMP_temperature;BMP_pressure;BME280_temperature;BME280_humidity;BME280_pressure;Samples;Min_cycle;Max_cycle;Signal;HPM_P1;HPM_P2
2023/08/08 00:02:25;;;;;;;3.43;2.07;;;17.00;92.50;;;;;;5033698;28;20490;-58
2023/08/08 00:04:52;;;;;;;5.27;2.37;;;17.00;92.60;;;;;;5033960;28;20442;-58
2023/08/08 00:07:19;;;;;;;2.87;1.53;;;17.00;92.90;;;;;;5033918;28;20442;-58
2023/08/08 00:09:47;;;;;;;2.70;2.50;;;16.90;93.00;;;;;;5033845;28;20451;-58
2023/08/08 00:12:13;;;;;;;5.47;2.10;;;16.90;93.00;;;;;;5033820;28;20449;-58
2023/08/08 00:14:40;;;;;;;2.23;2.07;;;16.90;93.10;;;;;;5034586;28;20450;-58
2023/08/08 00:17:07;;;;;;;2.70;2.50;;;16.80;93.10;;;;;;5033431;28;20477;-58
2023/08/08 00:19:34;;;;;;;3.30;2.03;;;16.80;93.10;;;;;;5033651;28;20450;-58
2023/08/08 00:22:00;;;;;;;3.40;2.10;;;16.80;93.40;;;;;;5033340;28;20478;-58
2023/08/08 00:24:27;;;;;;;5.37;2.03;;;16.80;93.40;;;;;;5033505;28;20454;-58
2023/08/08 00:26:55;;;;;;;7.53;2.30;;;16.70;93.20;;;;;;5033633;28;20454;-58
2023/08/08 00:29:22;;;;;;;5.53;2.40;;;16.70;93.10;;;;;;5033600;28;20443;-58
2023/08/08 00:31:48;;;;;;;5.90;2.70;;;16.70;93.30;;;;;;5033475;28;20458;-58
2023/08/08 00:34:15;;;;;;;2.60;2.40;;;16.60;93.10;;;;;;5033556;28;20446;-58
2023/08/08 00:36:42;;;;;;;7.30;2.53;;;16.60;93.40;;;;;;5033514;28;20447;-58
2023/08/08 00:39:08;;;;;;;3.73;2.87;;;16.50;93.80;;;;;;5033475;28;20453;-58
2023/08/08 00:41:35;;;;;;;4.93;3.30;;;16.50;93.70;;;;;;5032923;28;20569;-58
2023/08/08 00:44:03;;;;;;;3.03;2.73;;;16.50;93.90;;;;;;5033383;28;20518;-58
2023/08/08 00:46:30;;;;;;;3.33;2.90;;;16.50;93.70;;;;;;5033406;28;20450;-58
2023/08/08 00:48:57;;;;;;;4.13;3.57;;;16.40;93.70;;;;;;5033408;28;20469;-58
2023/08/08 00:51:25;;;;;;;8.80;2.47;;;16.40;93.80;;;;;;5033312;28;20469;-58
2023/08/08 00:53:52;;;;;;;3.50;3.20;;;16.40;94.10;;;;;;5033397;28;20449;-58
2023/08/08 00:56:19;;;;;;;3.60;2.97;;;16.40;94.10;;;;;;5033282;28;20447;-58
2023/08/08 00:58:46;;;;;;;2.90;2.33;;;16.30;93.90;;;;;;5033278;28;20438;-58
2023/08/08 01:01:14;;;;;;;3.90;2.80;;;16.30;94.10;;;;;;5032833;28;21047;-58
2023/08/08 01:03:41;;;;;;;3.67;2.57;;;16.20;94.30;;;;;;5032905;28;20458;-58
2023/08/08 01:06:19;;;;;;;3.07;2.30;;;16.20;94.80;;;;;;5033237;28;20442;-58
2023/08/08 01:08:51;;;;;;;3.30;2.70;;;16.20;94.80;;;;;;5033180;28;20438;-58
2023/08/08 01:11:18;;;;;;;5.00;3.17;;;16.20;94.70;;;;;;5033132;28;20463;-58
2023/08/08 01:13:46;;;;;;;6.00;3.20;;;16.10;94.80;;;;;;5037105;28;20454;-58
2023/08/08 01:16:15;;;;;;;5.00;2.37;;;16.10;94.90;;;;;;5037169;28;20541;-58
2023/08/08 01:18:43;;;;;;;5.77;3.07;;;16.10;95.00;;;;;;5037149;28;20469;-58
2023/08/08 01:21:11;;;;;;;3.67;2.60;;;16.00;95.10;;;;;;5036887;28;20489;-58
2023/08/08 01:23:44;;;;;;;5.30;3.87;;;16.00;95.30;;;;;;5036996;28;20454;-58
2023/08/08 01:26:13;;;;;;;3.00;2.70;;;16.00;95.40;;;;;;5037044;28;20422;-58
2023/08/08 01:28:40;;;;;;;4.97;3.53;;;16.00;95.60;;;;;;5036945;28;20442;-58
2023/08/08 01:31:07;;;;;;;3.33;2.90;;;15.90;95.80;;;;;;5036599;28;20458;-58
2023/08/08 01:33:33;;;;;;;4.17;2.80;;;15.90;95.90;;;;;;5036884;28;20450;-58
2023/08/08 01:36:08;;;;;;;3.63;2.90;;;16.00;95.90;;;;;;5036903;28;20434;-58
2023/08/08 01:38:39;;;;;;;4.53;2.73;;;16.00;95.80;;;;;;5036792;28;20423;-58
2023/08/08 01:41:08;;;;;;;9.73;2.60;;;16.00;95.90;;;;;;5036703;28;20489;-58
2023/08/08 01:43:37;;;;;;;6.47;2.90;;;15.90;95.90;;;;;;5037819;28;20454;-58
2023/08/08 01:46:05;;;;;;;4.40;3.00;;;15.90;96.10;;;;;;5036221;28;20824;-58
2023/08/08 01:48:32;;;;;;;2.73;2.53;;;15.80;96.20;;;;;;5036229;28;20450;-58
2023/08/08 01:50:58;;;;;;;5.90;3.07;;;15.80;96.40;;;;;;5036369;28;20470;-58
2023/08/08 01:53:25;;;;;;;3.67;2.47;;;15.80;96.50;;;;;;5036365;28;20453;-58
2023/08/08 01:55:52;;;;;;;8.00;3.20;;;15.70;96.40;;;;;;5036329;28;20842;-58
2023/08/08 01:58:19;;;;;;;3.20;2.67;;;15.70;96.70;;;;;;5036169;28;20469;-58
2023/08/08 02:00:47;;;;;;;4.80;2.67;;;15.60;97.00;;;;;;5036035;28;20536;-58
2023/08/08 02:03:15;;;;;;;5.23;2.50;;;15.60;96.90;;;;;;5035899;28;20469;-58
2023/08/08 02:05:42;;;;;;;3.57;2.70;;;15.60;97.10;;;;;;5036145;28;20445;-58
2023/08/08 02:08:09;;;;;;;4.60;2.47;;;15.60;97.30;;;;;;5036222;28;20449;-58
2023/08/08 02:10:36;;;;;;;6.80;2.83;;;15.60;97.60;;;;;;5036050;28;20492;-58
2023/08/08 02:13:02;;;;;;;6.17;2.90;;;15.60;97.60;;;;;;5036013;28;20438;-58
2023/08/08 02:15:29;;;;;;;2.70;2.10;;;15.50;97.60;;;;;;5036030;28;20492;-58
2023/08/08 02:17:57;;;;;;;4.23;3.00;;;15.50;97.60;;;;;;5036053;28;20784;-58
2023/08/08 02:20:24;;;;;;;4.57;2.53;;;15.50;97.90;;;;;;5035955;28;20462;-58
2023/08/08 02:22:50;;;;;;;2.90;2.27;;;15.40;98.00;;;;;;5035190;28;20479;-59
2023/08/08 02:25:17;;;;;;;5.10;2.40;;;15.50;98.00;;;;;;5035837;28;20912;-58
2023/08/08 02:27:44;;;;;;;6.10;2.37;;;15.40;98.20;;;;;;5035701;28;20447;-58
2023/08/08 02:30:12;;;;;;;3.77;2.50;;;15.40;98.30;;;;;;5035814;28;20471;-58
2023/08/08 02:32:39;;;;;;;7.20;2.80;;;15.40;98.40;;;;;;5035819;28;20438;-58
2023/08/08 02:35:08;;;;;;;7.63;2.60;;;15.30;98.40;;;;;;5036237;28;20465;-58
2023/08/08 02:37:34;;;;;;;6.30;3.00;;;15.30;98.70;;;;;;5035624;28;20442;-58
2023/08/08 02:40:01;;;;;;;6.47;2.73;;;15.20;98.80;;;;;;5035545;28;20458;-58
2023/08/08 02:42:28;;;;;;;5.17;2.43;;;15.30;98.80;;;;;;5035177;28;20550;-58
2023/08/08 02:44:54;;;;;;;3.67;2.33;;;15.30;98.90;;;;;;5035205;28;20863;-58
2023/08/08 02:47:21;;;;;;;3.60;2.40;;;15.20;99.20;;;;;;5035424;28;20446;-58
2023/08/08 02:49:48;;;;;;;3.00;2.40;;;15.30;99.10;;;;;;5035333;28;20442;-58
2023/08/08 02:52:16;;;;;;;6.17;2.40;;;15.20;99.00;;;;;;5035084;28;20928;-58
2023/08/08 02:54:42;;;;;;;4.10;2.60;;;15.20;99.10;;;;;;5035316;28;20454;-58
2023/08/08 02:57:10;;;;;;;7.90;2.63;;;15.20;99.30;;;;;;5034874;28;21006;-58
2023/08/08 02:59:37;;;;;;;4.30;2.77;;;15.20;99.30;;;;;;5035655;28;20453;-58
2023/08/08 03:02:04;;;;;;;4.60;2.80;;;15.20;99.20;;;;;;5034739;28;20491;-58
2023/08/08 03:04:31;;;;;;;5.23;2.80;;;15.20;99.40;;;;;;5035180;28;20425;-58
2023/08/08 03:06:57;;;;;;;3.43;2.13;;;15.20;99.40;;;;;;5034849;28;20971;-58
2023/08/08 03:09:25;;;;;;;5.23;3.00;;;15.20;99.50;;;;;;5035135;28;20445;-58
2023/08/08 03:11:52;;;;;;;4.97;2.50;;;15.30;99.50;;;;;;5034921;28;20454;-58
2023/08/08 03:14:19;;;;;;;8.53;3.70;;;15.30;99.50;;;;;;5034938;28;20439;-58
2023/08/08 03:16:45;;;;;;;4.90;2.90;;;15.20;99.50;;;;;;5034542;28;20943;-58
2023/08/08 03:19:12;;;;;;;8.63;3.37;;;15.20;99.80;;;;;;5034487;28;20944;-58
2023/08/08 03:21:39;;;;;;;6.20;3.00;;;15.10;99.90;;;;;;5034693;28;20482;-58
2023/08/08 03:24:06;;;;;;;5.10;3.10;;;15.10;99.90;;;;;;5034798;28;20446;-58
2023/08/08 03:26:34;;;;;;;4.87;3.27;;;15.00;99.90;;;;;;5034336;28;20868;-58
2023/08/08 03:29:01;;;;;;;8.50;3.10;;;15.10;99.90;;;;;;5034690;28;20446;-58
2023/08/08 03:31:28;;;;;;;4.47;2.80;;;15.00;99.90;;;;;;5034506;28;20466;-58
2023/08/08 03:33:54;;;;;;;6.33;3.70;;;15.10;99.90;;;;;;5034230;28;20936;-58
2023/08/08 03:36:21;;;;;;;7.70;2.70;;;15.00;99.90;;;;;;5034134;28;20481;-58
2023/08/08 03:38:48;;;;;;;4.47;3.00;;;15.00;99.90;;;;;;5034110;28;20446;-58
2023/08/08 03:41:15;;;;;;;6.60;3.67;;;14.90;99.90;;;;;;5034232;28;20510;-58
2023/08/08 03:43:43;;;;;;;5.73;2.90;;;15.00;99.90;;;;;;5034334;28;20481;-58
2023/08/08 03:46:11;;;;;;;7.40;3.40;;;15.00;99.90;;;;;;5034239;28;20455;-58
2023/08/08 03:48:38;;;;;;;6.47;2.60;;;14.90;99.90;;;;;;5033940;28;20945;-58
2023/08/08 03:51:05;;;;;;;10.57;3.30;;;14.90;99.90;;;;;;5033858;28;20988;-58
2023/08/08 03:53:32;;;;;;;9.77;3.17;;;14.90;99.90;;;;;;5033843;28;20983;-58
2023/08/08 03:55:59;;;;;;;4.23;3.40;;;14.90;99.90;;;;;;5033939;28;20447;-59
2023/08/08 03:58:25;;;;;;;10.13;4.43;;;14.90;99.90;;;;;;5033743;28;20947;-58
2023/08/08 04:00:53;;;;;;;4.80;3.67;;;14.90;99.90;;;;;;5033603;28;20851;-58
2023/08/08 04:03:20;;;;;;;5.07;2.63;;;14.90;99.90;;;;;;5033502;28;20493;-58
2023/08/08 04:05:48;;;;;;;6.23;3.50;;;15.00;99.90;;;;;;5033979;28;20446;-58
2023/08/08 04:08:16;;;;;;;5.87;3.43;;;15.00;99.90;;;;;;5033914;28;20445;-58
2023/08/08 04:10:43;;;;;;;5.10;2.90;;;15.00;99.90;;;;;;5033443;28;20842;-58
2023/08/08 04:13:10;;;;;;;6.23;4.10;;;15.00;99.90;;;;;;5033819;28;20525;-58
2023/08/08 04:15:37;;;;;;;7.83;3.07;;;15.00;99.90;;;;;;5033455;28;20450;-58
2023/08/08 04:18:06;;;;;;;7.87;4.70;;;15.10;99.90;;;;;;5033749;28;20442;-59
2023/08/08 04:20:33;;;;;;;7.13;3.60;;;15.10;99.90;;;;;;5033679;28;20553;-58
2023/08/08 04:22:59;;;;;;;7.93;3.50;;;15.20;99.90;;;;;;5033642;28;20477;-58
2023/08/08 04:25:26;;;;;;;9.43;4.40;;;15.10;99.90;;;;;;5033690;28;20447;-58
2023/08/08 04:27:53;;;;;;;11.70;4.63;;;15.20;99.90;;;;;;5033602;28;20439;-58
2023/08/08 04:30:20;;;;;;;9.30;4.87;;;15.20;99.90;;;;;;5033550;28;20462;-58
2023/08/08 04:32:46;;;;;;;5.50;3.70;;;15.20;99.90;;;;;;5033538;28;20443;-58
2023/08/08 04:35:15;;;;;;;9.17;4.40;;;15.20;99.90;;;;;;5033213;28;20453;-58
2023/08/08 04:37:41;;;;;;;8.20;4.10;;;15.20;99.90;;;;;;5033426;28;20450;-58
2023/08/08 04:40:09;;;;;;;10.63;4.83;;;15.20;99.90;;;;;;5033415;28;20497;-58
2023/08/08 04:42:36;;;;;;;7.60;5.00;;;15.20;99.90;;;;;;5033341;28;20486;-58
2023/08/08 04:45:04;;;;;;;8.37;4.37;;;15.30;99.90;;;;;;5033022;28;21057;-59
2023/08/08 04:47:30;;;;;;;8.20;4.57;;;15.30;99.90;;;;;;5032538;28;20454;-58
2023/08/08 04:49:57;;;;;;;6.67;3.90;;;15.30;99.90;;;;;;5033323;28;20831;-58
2023/08/08 04:52:25;;;;;;;9.00;3.80;;;15.30;99.90;;;;;;5033369;28;20818;-58
2023/08/08 04:54:52;;;;;;;7.80;4.63;;;15.40;99.90;;;;;;5033237;28;20457;-58
2023/08/08 04:57:18;;;;;;;7.87;4.00;;;15.40;99.90;;;;;;5033292;28;20442;-58
2023/08/08 04:59:45;;;;;;;7.30;4.10;;;15.50;99.90;;;;;;5033269;28;20447;-58
2023/08/08 05:02:12;;;;;;;5.87;3.80;;;15.50;99.90;;;;;;5032952;28;20486;-58
2023/08/08 05:04:39;;;;;;;10.30;4.17;;;15.60;99.90;;;;;;5032905;28;20854;-58
2023/08/08 05:07:05;;;;;;;8.90;4.20;;;15.60;99.90;;;;;;5033174;28;20466;-58
2023/08/08 05:09:34;;;;;;;6.10;4.23;;;15.60;99.90;;;;;;5033024;28;20504;-58
2023/08/08 05:12:00;;;;;;;8.47;4.37;;;15.70;99.90;;;;;;5032960;28;20449;-58
2023/08/08 05:14:27;;;;;;;6.67;3.67;;;15.70;99.90;;;;;;5033169;28;20450;-58
2023/08/08 05:16:54;;;;;;;11.03;4.30;;;15.70;99.90;;;;;;5033095;28;20447;-58
2023/08/08 05:19:20;;;;;;;9.10;3.70;;;15.70;99.90;;;;;;5032759;28;20960;-58
2023/08/08 05:21:47;;;;;;;7.67;4.17;;;15.70;99.90;;;;;;5032874;28;20827;-58
2023/08/08 05:24:14;;;;;;;9.07;4.40;;;15.80;99.90;;;;;;5033048;28;20443;-58
2023/08/08 05:26:42;;;;;;;10.40;4.10;;;15.90;99.90;;;;;;5033035;28;20442;-58
2023/08/08 05:29:08;;;;;;;16.47;5.00;;;15.90;99.90;;;;;;5033028;28;20450;-58
2023/08/08 05:31:35;;;;;;;10.63;4.53;;;15.90;99.90;;;;;;5032976;28;20477;-58
2023/08/08 05:34:02;;;;;;;11.73;4.87;;;15.90;99.90;;;;;;5032984;28;20450;-58
2023/08/08 05:36:28;;;;;;;9.57;4.10;;;15.90;99.90;;;;;;5033024;28;20447;-58
2023/08/08 05:38:55;;;;;;;8.00;4.63;;;15.90;99.90;;;;;;5032946;28;20453;-58
2023/08/08 05:41:21;;;;;;;9.50;4.43;;;15.90;99.90;;;;;;5032847;28;20469;-58
2023/08/08 05:43:50;;;;;;;10.50;3.80;;;15.90;99.90;;;;;;5032531;28;21026;-58
2023/08/08 05:46:16;;;;;;;9.63;4.50;;;15.90;99.90;;;;;;5032886;28;20447;-58
2023/08/08 05:48:43;;;;;;;13.67;4.23;;;15.90;99.90;;;;;;5032828;28;20815;-58
2023/08/08 05:51:10;;;;;;;9.30;4.13;;;15.90;99.90;;;;;;5032784;28;20466;-58
2023/08/08 05:53:38;;;;;;;9.00;3.70;;;15.90;99.90;;;;;;5032732;28;20442;-58
2023/08/08 05:56:05;;;;;;;10.50;4.37;;;15.90;99.90;;;;;;5032596;28;20447;-58
2023/08/08 05:58:31;;;;;;;8.57;3.33;;;16.00;99.90;;;;;;5035168;28;20449;-58
2023/08/08 06:00:59;;;;;;;7.40;3.50;;;16.00;99.90;;;;;;5036407;28;20661;-58
2023/08/08 06:03:27;;;;;;;10.73;3.87;;;16.00;99.90;;;;;;5035886;28;20485;-58
2023/08/08 06:05:54;;;;;;;7.63;3.60;;;16.00;99.90;;;;;;5036184;28;20492;-58
2023/08/08 06:08:20;;;;;;;6.30;2.93;;;16.00;99.90;;;;;;5036261;28;20454;-58
2023/08/08 06:10:47;;;;;;;11.13;3.27;;;16.10;99.90;;;;;;5036053;28;20466;-58
2023/08/08 06:13:14;;;;;;;6.50;2.50;;;16.10;99.90;;;;;;5036138;28;20434;-58
2023/08/08 06:15:40;;;;;;;10.07;2.93;;;16.10;99.90;;;;;;5036043;28;20447;-58
2023/08/08 06:18:09;;;;;;;7.93;3.23;;;16.20;99.90;;;;;;5036072;28;20454;-58
2023/08/08 06:20:36;;;;;;;7.27;3.43;;;16.30;99.90;;;;;;5034587;28;20988;-59
2023/08/08 06:23:03;;;;;;;8.00;3.17;;;16.30;99.90;;;;;;5035944;28;20478;-58
2023/08/08 06:25:29;;;;;;;3.90;3.03;;;16.30;99.90;;;;;;5035748;28;20450;-58
2023/08/08 06:27:56;;;;;;;6.93;3.20;;;16.40;99.90;;;;;;5035794;28;20959;-58
2023/08/08 06:30:23;;;;;;;7.60;3.50;;;16.30;99.90;;;;;;5035765;28;20545;-58
2023/08/08 06:32:49;;;;;;;12.80;3.37;;;16.40;99.90;;;;;;5035756;28;20443;-58
2023/08/08 06:35:18;;;;;;;7.20;3.97;;;16.50;99.90;;;;;;5035722;28;20446;-58
2023/08/08 06:37:44;;;;;;;8.33;3.93;;;16.50;99.90;;;;;;5035689;28;20496;-58
2023/08/08 06:40:13;;;;;;;7.43;3.67;;;16.50;99.90;;;;;;5035522;28;20490;-58
2023/08/08 06:42:39;;;;;;;7.33;4.10;;;16.60;99.90;;;;;;5035522;28;20478;-58
2023/08/08 06:45:07;;;;;;;5.73;3.07;;;16.60;99.90;;;;;;5035581;28;20454;-58
2023/08/08 06:47:34;;;;;;;10.90;3.80;;;16.60;99.90;;;;;;5035432;28;20458;-58
2023/08/08 06:50:00;;;;;;;8.43;3.40;;;16.70;99.90;;;;;;5035383;28;20466;-59
2023/08/08 06:52:28;;;;;;;14.47;3.50;;;16.80;99.90;;;;;;5035487;28;20482;-58
2023/08/08 06:54:55;;;;;;;9.87;3.50;;;16.90;99.90;;;;;;5035420;28;20468;-58
2023/08/08 06:57:22;;;;;;;7.93;3.03;;;17.10;99.90;;;;;;5035361;28;20443;-58
2023/08/08 06:59:50;;;;;;;10.73;3.27;;;17.10;99.90;;;;;;5034997;28;20952;-58
2023/08/08 07:02:17;;;;;;;7.40;4.00;;;17.20;99.90;;;;;;5034999;28;20458;-58
2023/08/08 07:04:44;;;;;;;9.53;3.60;;;17.20;99.80;;;;;;5035228;28;20454;-59
2023/08/08 07:07:11;;;;;;;6.40;3.23;;;17.20;99.50;;;;;;5034867;28;20956;-58
2023/08/08 07:09:39;;;;;;;8.63;3.53;;;17.20;99.90;;;;;;5034249;28;20447;-58
2023/08/08 07:12:06;;;;;;;6.70;4.50;;;17.40;99.80;;;;;;5035029;28;20449;-59
2023/08/08 07:14:33;;;;;;;10.47;3.67;;;17.50;99.10;;;;;;5035042;28;20512;-58
2023/08/08 07:16:59;;;;;;;4.00;3.60;;;17.50;98.80;;;;;;5034672;28;20957;-58
2023/08/08 07:19:26;;;;;;;9.80;3.70;;;17.60;99.20;;;;;;5035023;28;20485;-58
2023/08/08 07:21:53;;;;;;;7.23;3.37;;;17.60;99.00;;;;;;5035008;28;20470;-58
2023/08/08 07:24:20;;;;;;;8.53;3.80;;;17.60;98.50;;;;;;5034927;28;20589;-58
2023/08/08 07:26:48;;;;;;;8.63;4.07;;;17.70;98.60;;;;;;5034756;28;20439;-58
2023/08/08 07:29:15;;;;;;;11.30;3.43;;;17.80;98.90;;;;;;5034650;28;20438;-58
2023/08/08 07:31:41;;;;;;;8.13;4.10;;;18.00;98.40;;;;;;5034550;28;20462;-58
2023/08/08 07:34:08;;;;;;;10.87;4.03;;;18.10;97.40;;;;;;5035370;28;20504;-58
2023/08/08 07:36:35;;;;;;;7.33;3.67;;;18.10;97.60;;;;;;5034590;28;20473;-58
2023/08/08 07:39:01;;;;;;;10.63;4.47;;;18.30;97.80;;;;;;5034538;28;20451;-58
2023/08/08 07:41:31;;;;;;;7.10;3.73;;;18.40;97.20;;;;;;5034383;28;20465;-58
2023/08/08 07:43:59;;;;;;;6.77;4.00;;;18.40;96.80;;;;;;5034322;28;20482;-58
2023/08/08 07:46:25;;;;;;;6.00;3.50;;;18.40;96.80;;;;;;5033986;28;20450;-58
2023/08/08 07:48:52;;;;;;;11.50;4.20;;;18.60;96.60;;;;;;5034274;28;20453;-59
2023/08/08 07:51:19;;;;;;;7.80;3.40;;;18.60;96.80;;;;;;5034169;28;20465;-59
2023/08/08 07:53:45;;;;;;;5.03;3.40;;;18.60;96.20;;;;;;5034236;28;20454;-58
2023/08/08 07:56:12;;;;;;;12.00;3.73;;;18.50;96.20;;;;;;5034209;28;20453;-58
2023/08/08 07:58:39;;;;;;;7.20;4.03;;;18.50;96.50;;;;;;5034730;28;20486;-58
2023/08/08 08:01:07;;;;;;;8.67;4.10;;;18.40;96.50;;;;;;5033843;28;20466;-58
2023/08/08 08:03:33;;;;;;;11.73;4.40;;;18.40;96.30;;;;;;5033593;28;21003;-58
2023/08/08 08:06:00;;;;;;;10.43;4.17;;;18.30;97.00;;;;;;5034082;28;20451;-58
2023/08/08 08:08:27;;;;;;;13.30;4.23;;;18.30;97.40;;;;;;5034001;28;20439;-58
2023/08/08 08:10:54;;;;;;;15.20;4.33;;;18.30;97.00;;;;;;5033604;28;20462;-58
2023/08/08 08:13:20;;;;;;;6.63;4.03;;;18.20;97.40;;;;;;5033620;28;20940;-58
2023/08/08 08:15:47;;;;;;;9.83;4.73;;;17.90;97.10;;;;;;5033900;28;20493;-58
2023/08/08 08:18:16;;;;;;;8.43;4.13;;;17.90;97.90;;;;;;5033778;28;20517;-58
2023/08/08 08:20:43;;;;;;;8.73;4.60;;;17.90;98.20;;;;;;5033760;28;20500;-58
2023/08/08 08:23:10;;;;;;;8.67;4.57;;;17.80;98.00;;;;;;5033856;28;20489;-58
2023/08/08 08:25:37;;;;;;;10.13;5.10;;;17.80;98.40;;;;;;5033884;28;20453;-58
2023/08/08 08:28:04;;;;;;;10.43;5.00;;;17.70;98.80;;;;;;5033852;28;20469;-58
2023/08/08 08:30:31;;;;;;;16.23;4.50;;;17.70;98.40;;;;;;5033797;28;20474;-58
2023/08/08 08:32:58;;;;;;;7.80;3.80;;;17.60;98.80;;;;;;5033725;28;20450;-58
2023/08/08 08:35:26;;;;;;;8.93;4.87;;;17.60;99.00;;;;;;5033831;28;20446;-58
2023/08/08 08:37:53;;;;;;;10.17;4.40;;;17.60;99.10;;;;;;5033756;28;20480;-56
2023/08/08 08:40:20;;;;;;;7.70;4.57;;;17.50;99.90;;;;;;5033722;28;20470;-57
2023/08/08 08:42:48;;;;;;;9.93;5.80;;;17.50;99.90;;;;;;5033707;28;20442;-56
2023/08/08 08:45:20;;;;;;;7.40;4.73;;;17.40;99.90;;;;;;5033692;28;20447;-56
2023/08/08 08:47:48;;;;;;;7.67;5.70;;;17.20;99.90;;;;;;5033765;28;20431;-58
2023/08/08 08:50:16;;;;;;;9.53;5.87;;;17.10;99.90;;;;;;5033505;28;20465;-58
2023/08/08 08:52:44;;;;;;;8.83;5.10;;;17.10;99.90;;;;;;5033732;28;20450;-57
2023/08/08 08:55:11;;;;;;;8.23;5.30;;;17.20;99.90;;;;;;5033428;28;20445;-57
2023/08/08 08:57:39;;;;;;;6.50;5.77;;;17.10;99.90;;;;;;5033367;28;20474;-58
2023/08/08 09:00:07;;;;;;;10.57;7.00;;;17.10;99.90;;;;;;5033146;28;20469;-58
2023/08/08 09:02:34;;;;;;;8.00;6.70;;;17.20;99.90;;;;;;5033032;28;20454;-58
2023/08/08 09:05:02;;;;;;;11.03;5.50;;;17.20;99.90;;;;;;5033208;28;20490;-58
2023/08/08 09:07:32;;;;;;;9.37;5.90;;;17.40;99.90;;;;;;5033236;28;20490;-58
2023/08/08 09:10:00;;;;;;;10.53;6.17;;;17.50;99.90;;;;;;5033174;28;20478;-58
2023/08/08 09:12:28;;;;;;;10.40;6.00;;;17.50;99.90;;;;;;5033232;28;20443;-58
2023/08/08 09:14:57;;;;;;;9.27;5.87;;;17.60;99.90;;;;;;5032815;28;20823;-58
2023/08/08 09:17:25;;;;;;;10.00;6.20;;;17.60;99.90;;;;;;5033206;28;20478;-59
2023/08/08 09:19:54;;;;;;;9.40;6.17;;;17.60;99.90;;;;;;5033043;28;20477;-59
2023/08/08 09:22:21;;;;;;;12.87;6.07;;;17.80;99.90;;;;;;5033084;28;20453;-58
2023/08/08 09:24:47;;;;;;;12.07;5.47;;;18.10;99.90;;;;;;5032979;28;20485;-58
2023/08/08 09:27:15;;;;;;;8.13;5.10;;;18.30;99.90;;;;;;5032697;28;20446;-58
2023/08/08 09:29:43;;;;;;;7.93;5.60;;;18.50;99.90;;;;;;5033423;28;20469;-59
2023/08/08 09:32:10;;;;;;;6.60;4.57;;;18.80;99.90;;;;;;5032965;28;20447;-58
2023/08/08 09:34:37;;;;;;;10.40;5.27;;;19.10;99.90;;;;;;5036631;28;20492;-59
2023/08/08 09:37:05;;;;;;;6.50;4.30;;;19.40;99.90;;;;;;5036768;28;20446;-58
2023/08/08 09:39:31;;;;;;;10.93;4.40;;;19.70;99.50;;;;;;5036724;28;20819;-58
2023/08/08 09:41:58;;;;;;;17.10;4.90;;;19.70;97.10;;;;;;5036448;28;20979;-58
2023/08/08 09:44:29;;;;;;;6.03;3.90;;;19.70;96.40;;;;;;5036605;28;20482;-58
2023/08/08 09:46:56;;;;;;;4.57;3.50;;;19.60;96.90;;;;;;5036330;28;20900;-59
2023/08/08 09:49:23;;;;;;;8.40;4.93;;;19.50;97.50;;;;;;5036508;28;20451;-58
2023/08/08 09:51:50;;;;;;;6.43;3.60;;;19.60;97.60;;;;;;5036513;28;20465;-58
2023/08/08 09:54:17;;;;;;;7.60;4.93;;;19.50;96.90;;;;;;5036504;28;20493;-58
2023/08/08 09:56:44;;;;;;;9.50;4.20;;;19.60;97.70;;;;;;5036178;28;20943;-58
2023/08/08 09:59:12;;;;;;;10.43;4.83;;;19.60;96.30;;;;;;5036431;28;20450;-58
2023/08/08 10:01:41;;;;;;;6.73;5.20;;;19.50;96.00;;;;;;5036154;28;20477;-58
2023/08/08 10:04:08;;;;;;;7.67;4.70;;;19.50;95.80;;;;;;5036293;28;20462;-58
2023/08/08 10:06:35;;;;;;;8.20;4.23;;;19.40;96.20;;;;;;5036263;28;20544;-59
2023/08/08 10:09:03;;;;;;;6.13;3.87;;;19.40;96.40;;;;;;5036266;28;20811;-58
2023/08/08 10:11:32;;;;;;;9.40;4.63;;;19.20;95.20;;;;;;5036146;28;20500;-58
2023/08/08 10:14:02;;;;;;;7.00;3.80;;;19.10;95.60;;;;;;5036106;28;20492;-58
2023/08/08 10:16:28;;;;;;;9.10;5.80;;;19.00;96.30;;;;;;5036085;28;20442;-59
2023/08/08 10:19:02;;;;;;;9.20;4.80;;;19.00;96.70;;;;;;5035760;28;20948;-59
2023/08/08 10:21:29;;;;;;;4.47;4.07;;;18.90;96.30;;;;;;5035938;28;20554;-58
2023/08/08 10:24:04;;;;;;;12.63;5.10;;;18.80;97.10;;;;;;5035534;28;20885;-58
2023/08/08 10:26:31;;;;;;;7.17;3.93;;;18.90;97.60;;;;;;5035906;28;20429;-58
2023/08/08 10:28:59;;;;;;;5.47;4.40;;;18.90;97.10;;;;;;5035796;28;20501;-59
2023/08/08 10:31:27;;;;;;;7.13;3.90;;;18.90;96.90;;;;;;5035430;28;20470;-58
2023/08/08 10:34:04;;;;;;;9.50;4.50;;;18.90;96.10;;;;;;5035739;28;20443;-59
2023/08/08 10:36:52;;;;;;;4.63;3.57;;;18.90;96.30;;;;;;5035703;28;20892;-58
2023/08/08 10:39:20;;;;;;;6.53;3.87;;;18.90;96.50;;;;;;5036179;28;20427;-58
2023/08/08 10:41:48;;;;;;;8.50;4.23;;;18.90;95.70;;;;;;5035411;28;20473;-59
2023/08/08 10:44:22;;;;;;;6.50;3.80;;;18.90;95.40;;;;;;5034406;28;20482;-58
2023/08/08 10:46:49;;;;;;;5.87;3.53;;;18.90;95.90;;;;;;5035591;28;20497;-58
2023/08/08 10:49:18;;;;;;;7.93;4.27;;;19.00;95.30;;;;;;5035467;28;20513;-58
2023/08/08 10:51:47;;;;;;;6.43;2.70;;;19.20;95.20;;;;;;5035058;28;20984;-58
2023/08/08 10:54:16;;;;;;;6.27;3.13;;;19.70;94.30;;;;;;5036224;28;20880;-59
2023/08/08 10:56:48;;;;;;;9.90;3.40;;;20.20;93.40;;;;;;5035327;28;20447;-59
2023/08/08 10:59:17;;;;;;;9.23;3.43;;;20.30;92.70;;;;;;5035392;28;20447;-59
2023/08/08 11:01:47;;;;;;;3.40;2.47;;;20.40;91.90;;;;;;5034995;28;20466;-59
2023/08/08 11:04:15;;;;;;;4.70;2.70;;;20.30;90.70;;;;;;5035396;28;20868;-59
2023/08/08 11:06:43;;;;;;;5.90;3.27;;;20.10;91.10;;;;;;5035119;28;20496;-59
2023/08/08 11:09:10;;;;;;;8.43;2.70;;;19.90;90.90;;;;;;5035105;28;20442;-58
2023/08/08 11:11:38;;;;;;;5.53;2.60;;;19.60;91.60;;;;;;5035009;28;20494;-58
2023/08/08 11:14:11;;;;;;;6.30;3.97;;;19.40;92.80;;;;;;5034971;28;20449;-58
2023/08/08 11:16:38;;;;;;;4.00;2.77;;;19.20;92.80;;;;;;5034988;28;20435;-58
2023/08/08 11:19:05;;;;;;;6.10;3.80;;;19.10;94.00;;;;;;5034884;28;20500;-58
2023/08/08 11:21:34;;;;;;;5.00;2.83;;;18.90;94.60;;;;;;5034607;28;20976;-59
2023/08/08 11:24:03;;;;;;;4.83;3.60;;;18.80;95.20;;;;;;5034754;28;20585;-58
2023/08/08 11:26:31;;;;;;;7.10;3.57;;;18.60;94.70;;;;;;5034454;28;20941;-58
2023/08/08 11:28:59;;;;;;;8.20;3.87;;;18.50;95.90;;;;;;5034662;28;20446;-57
2023/08/08 11:31:25;;;;;;;4.37;3.20;;;18.40;97.40;;;;;;5034647;28;20458;-57
2023/08/08 11:33:54;;;;;;;4.40;3.00;;;18.30;97.70;;;;;;5034322;28;20945;-57
2023/08/08 11:36:22;;;;;;;6.30;3.70;;;18.30;98.10;;;;;;5034525;28;20439;-58
2023/08/08 11:38:50;;;;;;;7.20;4.20;;;18.20;98.40;;;;;;5034488;28;20549;-57
2023/08/08 11:41:20;;;;;;;5.67;3.80;;;18.10;98.90;;;;;;5034421;28;20473;-56
2023/08/08 11:43:47;;;;;;;7.50;4.20;;;18.10;99.30;;;;;;5034401;28;20439;-56
2023/08/08 11:46:14;;;;;;;6.97;4.13;;;18.10;99.90;;;;;;5034390;28;20473;-58
2023/08/08 11:48:41;;;;;;;6.53;4.17;;;18.00;99.90;;;;;;5034339;28;20450;-58
2023/08/08 11:51:09;;;;;;;6.53;3.90;;;18.10;99.90;;;;;;5034276;28;20833;-58
2023/08/08 11:53:36;;;;;;;5.40;3.57;;;18.10;99.90;;;;;;5034264;28;20450;-58
2023/08/08 11:56:04;;;;;;;7.27;5.13;;;18.10;99.90;;;;;;5033738;28;20960;-58
2023/08/08 11:58:32;;;;;;;11.63;3.80;;;18.10;99.90;;;;;;5034193;28;20450;-58
2023/08/08 12:00:59;;;;;;;6.57;3.80;;;18.20;99.90;;;;;;5034096;28;20561;-57
2023/08/08 12:03:27;;;;;;;5.33;3.97;;;18.10;99.90;;;;;;5033847;28;20952;-57
2023/08/08 12:05:53;;;;;;;4.73;3.73;;;18.10;99.90;;;;;;5033981;28;20493;-57
2023/08/08 12:08:21;;;;;;;5.90;3.83;;;18.00;99.90;;;;;;5034030;28;20447;-57
2023/08/08 12:10:53;;;;;;;3.50;3.10;;;17.90;99.90;;;;;;5033942;28;20498;-58
2023/08/08 12:13:21;;;;;;;4.03;3.33;;;17.80;99.90;;;;;;5033960;28;20450;-58
2023/08/08 12:15:50;;;;;;;4.00;2.93;;;17.80;99.90;;;;;;5033828;28;20446;-58
2023/08/08 12:18:18;;;;;;;4.40;3.53;;;17.80;99.90;;;;;;5033544;28;20454;-58
2023/08/08 12:20:44;;;;;;;3.87;3.00;;;17.80;99.90;;;;;;5033795;28;20470;-58
2023/08/08 12:23:11;;;;;;;3.53;3.00;;;17.80;99.90;;;;;;5033517;28;20449;-58
2023/08/08 12:25:38;;;;;;;7.97;3.70;;;17.90;99.90;;;;;;5033386;28;20478;-58
2023/08/08 12:28:06;;;;;;;3.33;3.03;;;18.10;99.90;;;;;;5033698;28;20446;-58
2023/08/08 12:30:32;;;;;;;6.33;4.23;;;18.10;99.90;;;;;;5033597;28;20477;-58
2023/08/08 12:33:02;;;;;;;5.80;3.10;;;18.20;99.90;;;;;;5033713;28;20785;-58
2023/08/08 12:35:28;;;;;;;11.07;5.03;;;18.30;99.90;;;;;;5033615;28;20437;-58
2023/08/08 12:37:55;;;;;;;5.80;3.30;;;18.40;99.90;;;;;;5034051;28;20921;-58
2023/08/08 12:40:22;;;;;;;5.80;3.57;;;18.60;99.90;;;;;;5033582;28;20819;-58
2023/08/08 12:42:48;;;;;;;5.77;3.37;;;19.00;99.90;;;;;;5033698;28;20446;-59
2023/08/08 12:45:15;;;;;;;6.03;3.77;;;19.30;98.80;;;;;;5033362;28;20521;-59
2023/08/08 12:47:42;;;;;;;4.13;3.27;;;19.60;98.50;;;;;;5033518;28;20453;-59